createdAt,value
2019-03-24T00:02:19.410Z,28.50
2019-03-24T00:04:48.719Z,29.87
2019-03-24T00:07:17.865Z,30.35
2019-03-24T00:09:47.455Z,29.48
2019-03-24T00:12:16.810Z,29.77
2019-03-24T00:14:45.962Z,29.30
2019-03-24T00:17:15.062Z,29.55
2019-03-24T00:19:44.148Z,30.27
2019-03-24T00:22:13.256Z,29.82
2019-03-24T00:24:42.345Z,28.95
2019-03-24T00:27:11.446Z,29.10
2019-03-24T00:29:41.083Z,30.50
2019-03-24T00:32:10.146Z,28.87
2019-03-24T00:34:39.762Z,29.05
2019-03-24T00:37:09.087Z,30.17
2019-03-24T00:39:38.136Z,30.25
2019-03-24T00:42:07.270Z,30.45
2019-03-24T00:44:36.342Z,32.03
2019-03-24T00:47:05.675Z,30.25
2019-03-24T00:49:34.754Z,30.37
2019-03-24T00:52:03.855Z,30.45
2019-03-24T00:54:32.943Z,31.12
2019-03-24T00:57:02.054Z,31.40
2019-03-24T00:59:31.100Z,30.45
2019-03-24T01:02:00.222Z,30.72
2019-03-24T01:04:30.049Z,32.10
2019-03-24T01:06:59.134Z,33.88
2019-03-24T01:09:28.537Z,31.90
2019-03-24T01:11:57.629Z,31.52
2019-03-24T01:14:26.740Z,32.63
2019-03-24T01:16:55.826Z,31.55
2019-03-24T01:19:24.930Z,32.38
2019-03-24T01:21:54.514Z,32.98
2019-03-24T01:24:23.738Z,32.95
2019-03-24T01:26:52.831Z,32.38
2019-03-24T01:29:22.875Z,31.85
2019-03-24T01:31:51.938Z,33.67
2019-03-24T01:34:21.072Z,31.50
2019-03-24T01:36:50.126Z,33.73
2019-03-24T01:39:19.246Z,33.42
2019-03-24T01:41:48.323Z,31.33
2019-03-24T01:44:17.421Z,32.78
2019-03-24T01:46:46.799Z,33.08
2019-03-24T01:49:15.921Z,34.35
2019-03-24T01:51:45.015Z,32.73
2019-03-24T01:54:14.109Z,34.05
2019-03-24T01:56:43.239Z,33.67
2019-03-24T01:59:12.394Z,34.78
2019-03-24T02:01:41.502Z,33.98
2019-03-24T02:04:10.610Z,34.80
2019-03-24T02:06:39.950Z,34.83
2019-03-24T02:09:09.726Z,34.25
2019-03-24T02:11:38.808Z,32.25
2019-03-24T02:14:07.895Z,33.88
2019-03-24T02:16:36.998Z,34.38
2019-03-24T02:19:06.086Z,33.98
2019-03-24T02:21:35.191Z,34.67
2019-03-24T02:24:04.278Z,34.05
2019-03-24T02:26:33.859Z,34.13
2019-03-24T02:29:03.290Z,34.38
2019-03-24T02:31:32.476Z,34.38
2019-03-24T02:34:01.592Z,35.15
2019-03-24T02:36:30.691Z,34.20
2019-03-24T02:38:59.770Z,33.83
2019-03-24T02:41:28.835Z,33.55
2019-03-24T02:43:57.961Z,33.70
2019-03-24T02:46:27.321Z,33.85
2019-03-24T02:48:56.473Z,34.50
2019-03-24T02:51:25.808Z,36.17
2019-03-24T02:53:54.864Z,35.80
2019-03-24T02:56:23.971Z,33.05
2019-03-24T02:58:53.068Z,34.65
2019-03-24T03:01:22.452Z,34.35
2019-03-24T03:03:51.554Z,32.17
2019-03-24T03:06:20.700Z,29.57
2019-03-24T03:08:49.859Z,30.92
2019-03-24T03:11:19.024Z,29.55
2019-03-24T03:13:48.623Z,29.57
2019-03-24T03:16:17.759Z,28.75
2019-03-24T03:18:46.869Z,28.32
2019-03-24T03:21:15.951Z,30.48
2019-03-24T03:23:45.046Z,32.93
2019-03-24T03:26:14.215Z,35.90
2019-03-24T03:28:43.353Z,35.75
2019-03-24T03:31:12.509Z,34.53
2019-03-24T03:33:41.648Z,34.53
2019-03-24T03:36:10.962Z,30.82
2019-03-24T03:38:40.052Z,28.35
2019-03-24T03:41:09.116Z,26.77
2019-03-24T03:43:38.227Z,27.27
2019-03-24T03:46:07.560Z,28.98
2019-03-24T03:48:36.738Z,30.75
2019-03-24T03:51:05.815Z,29.15
2019-03-24T03:53:35.178Z,29.90
2019-03-24T03:56:04.618Z,28.25
2019-03-24T03:58:33.727Z,28.25
2019-03-24T04:01:02.797Z,27.98
2019-03-24T04:03:31.910Z,27.13
2019-03-24T04:06:01.017Z,29.02
2019-03-24T04:08:30.275Z,27.70
2019-03-24T04:10:59.398Z,28.70
2019-03-24T04:13:28.509Z,27.80
2019-03-24T04:15:57.816Z,28.70
2019-03-24T04:18:27.156Z,27.67
2019-03-24T04:20:56.541Z,27.65
2019-03-24T04:23:25.845Z,29.77
2019-03-24T04:25:55.015Z,30.65
2019-03-24T04:28:24.100Z,30.90
2019-03-24T04:30:53.204Z,30.30
2019-03-24T04:33:22.316Z,31.93
2019-03-24T04:35:51.619Z,31.80
2019-03-24T04:38:21.176Z,31.35
2019-03-24T04:40:50.315Z,33.00
2019-03-24T04:43:19.604Z,32.70
2019-03-24T04:45:49.166Z,31.95
2019-03-24T04:48:18.754Z,32.48
2019-03-24T04:50:48.140Z,31.02
2019-03-24T04:53:17.198Z,29.23
2019-03-24T04:55:46.312Z,28.40
2019-03-24T04:58:15.404Z,26.90
2019-03-24T05:00:44.498Z,27.32
2019-03-24T05:03:13.582Z,27.55
2019-03-24T05:05:42.747Z,27.60
2019-03-24T05:08:11.891Z,27.87
2019-03-24T05:10:40.999Z,27.00
2019-03-24T05:13:10.095Z,27.45
2019-03-24T05:15:39.190Z,29.32
2019-03-24T05:18:08.495Z,29.48
2019-03-24T05:20:38.035Z,30.50
2019-03-24T05:23:07.179Z,29.90
2019-03-24T05:25:36.572Z,30.62
2019-03-24T05:28:05.675Z,31.35
2019-03-24T05:30:34.786Z,32.23
2019-03-24T05:33:03.854Z,31.90
2019-03-24T05:35:32.958Z,31.02
2019-03-24T05:38:02.386Z,29.42
2019-03-24T05:40:31.454Z,29.00
2019-03-24T05:43:00.734Z,29.07
2019-03-24T05:45:29.867Z,28.87
2019-03-24T05:47:58.955Z,29.32
2019-03-24T05:50:28.049Z,30.02
2019-03-24T05:52:57.151Z,30.80
2019-03-24T05:55:26.234Z,29.80
2019-03-24T05:57:55.613Z,29.23
2019-03-24T06:00:24.743Z,29.25
2019-03-24T06:02:54.131Z,29.82
2019-03-24T06:05:23.266Z,29.12
2019-03-24T06:07:52.596Z,28.83
2019-03-24T06:10:21.742Z,31.12
2019-03-24T06:12:51.154Z,30.65
2019-03-24T06:15:20.463Z,31.85
2019-03-24T06:17:49.545Z,31.60
2019-03-24T06:20:18.626Z,32.48
2019-03-24T06:22:47.977Z,31.65
2019-03-24T06:25:17.141Z,31.60
2019-03-24T06:27:46.239Z,31.15
2019-03-24T06:30:15.567Z,33.70
2019-03-24T06:32:44.863Z,32.90
2019-03-24T06:35:13.934Z,32.55
2019-03-24T06:37:43.299Z,32.25
2019-03-24T06:40:12.583Z,33.40
2019-03-24T06:42:41.698Z,32.50
2019-03-24T06:45:10.791Z,33.50
2019-03-24T06:47:39.892Z,35.13
2019-03-24T06:50:09.076Z,36.33
2019-03-24T06:52:38.182Z,35.30
2019-03-24T06:55:07.274Z,34.08
2019-03-24T06:57:36.598Z,34.40
2019-03-24T07:00:06.186Z,34.23
2019-03-24T07:02:35.274Z,35.08
2019-03-24T07:05:04.979Z,35.10
2019-03-24T07:07:34.087Z,37.65
2019-03-24T07:10:03.176Z,35.65
2019-03-24T07:12:32.278Z,36.45
2019-03-24T07:15:01.613Z,35.58
2019-03-24T07:17:30.675Z,36.73
2019-03-24T07:20:00.262Z,35.17
2019-03-24T07:22:29.478Z,38.30
2019-03-24T07:24:58.579Z,36.05
2019-03-24T07:27:27.967Z,40.55
2019-03-24T07:29:57.082Z,39.53
2019-03-24T07:32:26.658Z,42.35
2019-03-24T07:34:55.784Z,42.65
2019-03-24T07:37:24.882Z,41.77
2019-03-24T07:39:53.979Z,41.65
2019-03-24T07:42:23.070Z,42.08
2019-03-24T07:44:52.169Z,40.48
2019-03-24T07:47:21.259Z,39.27
2019-03-24T07:49:50.354Z,39.83
2019-03-24T07:52:19.446Z,39.55
2019-03-24T07:54:48.542Z,39.05
2019-03-24T07:57:18.145Z,37.90
2019-03-24T07:59:47.246Z,37.20
2019-03-24T08:02:16.808Z,37.73
2019-03-24T08:04:46.025Z,38.25
2019-03-24T08:07:15.155Z,38.35
2019-03-24T08:09:44.250Z,38.73
2019-03-24T08:12:13.346Z,37.93
2019-03-24T08:14:42.448Z,37.53
2019-03-24T08:17:11.759Z,37.67
2019-03-24T08:19:41.328Z,35.35
2019-03-24T08:22:10.771Z,35.70
2019-03-24T08:24:39.851Z,36.88
2019-03-24T08:27:08.934Z,37.23
2019-03-24T08:29:39.076Z,36.20
2019-03-24T08:32:08.268Z,35.78
2019-03-24T08:34:37.729Z,36.77
2019-03-24T08:37:07.186Z,37.73
2019-03-24T08:39:37.559Z,37.38
2019-03-24T08:42:07.330Z,36.05
2019-03-24T08:44:37.082Z,34.92
2019-03-24T08:47:06.214Z,35.00
2019-03-24T08:49:38.081Z,35.13
2019-03-24T08:52:07.407Z,35.03
2019-03-24T08:54:36.707Z,35.78
2019-03-24T08:57:05.783Z,36.68
2019-03-24T08:59:35.154Z,28.25
2019-03-24T09:02:04.572Z,26.82
2019-03-24T09:04:34.170Z,22.00
2019-03-24T09:07:03.278Z,30.43
2019-03-24T09:09:32.598Z,31.97
2019-03-24T09:12:01.686Z,31.48
2019-03-24T09:14:30.997Z,20.75
2019-03-24T09:17:00.306Z,24.43
2019-03-24T09:19:29.606Z,28.98
2019-03-24T09:21:58.949Z,27.32
2019-03-24T09:24:28.073Z,27.02
2019-03-24T09:26:57.183Z,26.00
2019-03-24T09:29:26.557Z,26.97
2019-03-24T09:31:55.698Z,26.80
2019-03-24T09:34:24.806Z,28.95
2019-03-24T09:36:56.669Z,33.42
2019-03-24T09:39:26.070Z,34.50
2019-03-24T09:41:55.366Z,33.83
2019-03-24T09:44:24.907Z,32.67
2019-03-24T09:46:54.277Z,34.27
2019-03-24T09:49:23.593Z,33.50
2019-03-24T09:51:52.742Z,33.58
2019-03-24T09:54:21.835Z,34.67
2019-03-24T09:56:50.942Z,33.85
2019-03-24T09:59:19.986Z,32.10
2019-03-24T10:01:49.135Z,33.02
2019-03-24T10:04:18.220Z,32.53
2019-03-24T10:06:47.344Z,34.15
2019-03-24T10:09:16.414Z,33.00
2019-03-24T10:11:45.515Z,33.98
2019-03-24T10:14:14.603Z,35.35
2019-03-24T10:16:43.706Z,32.73
2019-03-24T10:19:14.294Z,32.60
2019-03-24T10:21:43.863Z,33.10
2019-03-24T10:24:13.014Z,33.00
2019-03-24T10:26:42.371Z,34.15
2019-03-24T10:29:11.435Z,34.13
2019-03-24T10:31:42.555Z,32.70
2019-03-24T10:34:11.575Z,33.38
2019-03-24T10:36:40.899Z,33.83
2019-03-24T10:39:09.963Z,32.88
2019-03-24T10:41:39.738Z,32.80
2019-03-24T10:44:08.874Z,34.03
2019-03-24T10:46:37.978Z,32.98
2019-03-24T10:49:07.066Z,31.17
2019-03-24T10:51:36.171Z,33.30
2019-03-24T10:54:05.483Z,32.78
2019-03-24T10:56:34.662Z,32.28
2019-03-24T10:59:03.768Z,31.57
2019-03-24T11:01:32.853Z,33.05
2019-03-24T11:04:02.469Z,32.17
2019-03-24T11:06:31.575Z,33.20
2019-03-24T11:09:00.666Z,30.82
2019-03-24T11:11:29.998Z,30.40
2019-03-24T11:13:59.423Z,33.23
2019-03-24T11:16:28.554Z,33.30
2019-03-24T11:18:57.885Z,33.65
2019-03-24T11:21:27.182Z,30.75
2019-03-24T11:23:56.495Z,31.62
2019-03-24T11:26:25.665Z,30.62
2019-03-24T11:28:54.778Z,32.55
2019-03-24T11:31:23.836Z,30.12
2019-03-24T11:33:52.962Z,31.10
2019-03-24T11:36:22.295Z,32.03
2019-03-24T11:38:51.446Z,31.95
2019-03-24T11:41:20.538Z,30.92
2019-03-24T11:43:49.599Z,29.57
2019-03-24T11:46:18.955Z,31.40
2019-03-24T11:48:48.038Z,30.75
2019-03-24T11:51:17.634Z,31.45
2019-03-24T11:53:47.012Z,37.38
2019-03-24T11:56:16.142Z,36.50
2019-03-24T11:58:45.288Z,34.30
2019-03-24T12:01:14.431Z,35.55
2019-03-24T12:03:43.543Z,36.03
2019-03-24T12:06:14.776Z,34.27
2019-03-24T12:08:43.466Z,34.83
2019-03-24T12:11:12.793Z,31.93
2019-03-24T12:13:42.195Z,31.10
2019-03-24T12:16:11.257Z,32.35
2019-03-24T12:18:40.819Z,32.45
2019-03-24T12:21:10.202Z,31.27
2019-03-24T12:23:39.490Z,30.92
2019-03-24T12:26:08.807Z,32.25
2019-03-24T12:28:38.577Z,31.95
2019-03-24T12:31:07.923Z,31.02
2019-03-24T12:33:37.671Z,31.85
2019-03-24T12:36:06.810Z,32.67
2019-03-24T12:38:35.878Z,31.15
2019-03-24T12:41:05.645Z,31.30
2019-03-24T12:43:34.777Z,31.23
2019-03-24T12:46:04.106Z,31.75
2019-03-24T12:48:33.178Z,32.98
2019-03-24T12:51:02.270Z,32.40
2019-03-24T12:53:31.362Z,31.52
2019-03-24T12:56:00.706Z,32.73
2019-03-24T12:58:30.132Z,32.13
2019-03-24T13:00:59.496Z,30.37
2019-03-24T13:03:28.570Z,29.12
2019-03-24T13:05:57.687Z,28.10
2019-03-24T13:08:26.750Z,24.72
2019-03-24T13:10:55.858Z,23.85
2019-03-24T13:13:24.951Z,24.45
2019-03-24T13:15:54.046Z,25.10
2019-03-24T13:18:23.146Z,26.57
2019-03-24T13:20:52.240Z,23.85
2019-03-24T13:23:21.334Z,27.07
2019-03-24T13:25:50.771Z,28.73
2019-03-24T13:28:20.160Z,29.15
2019-03-24T13:30:49.247Z,27.42
2019-03-24T13:33:18.360Z,26.25
2019-03-24T13:35:51.430Z,24.05
2019-03-24T13:38:20.518Z,22.52
2019-03-24T13:40:49.810Z,23.38
2019-03-24T13:43:18.914Z,24.07
2019-03-24T13:45:48.035Z,24.52
2019-03-24T13:48:17.571Z,22.87
2019-03-24T13:50:47.299Z,24.65
2019-03-24T13:53:16.646Z,23.90
2019-03-24T13:55:45.736Z,23.85
2019-03-24T13:58:14.814Z,25.25
2019-03-24T14:00:44.186Z,23.85
2019-03-24T14:03:13.603Z,23.32
2019-03-24T14:05:42.735Z,25.00
2019-03-24T14:08:12.806Z,25.27
2019-03-24T14:10:42.487Z,25.48
2019-03-24T14:13:11.661Z,25.57
2019-03-24T14:15:40.980Z,24.67
2019-03-24T14:18:10.290Z,24.02
2019-03-24T14:20:43.721Z,28.10
2019-03-24T14:23:10.322Z,27.73
2019-03-24T14:25:39.763Z,25.95
2019-03-24T14:28:09.771Z,26.20
2019-03-24T14:30:48.459Z,25.43
2019-03-24T14:33:17.630Z,25.70
2019-03-24T14:35:46.950Z,24.57
2019-03-24T14:38:16.026Z,24.77
2019-03-24T14:40:45.148Z,24.67
2019-03-24T14:43:14.236Z,25.00
2019-03-24T14:45:43.542Z,24.50
2019-03-24T14:48:12.623Z,24.85
2019-03-24T14:50:41.935Z,23.83
2019-03-24T14:53:11.027Z,23.80
2019-03-24T14:55:40.096Z,24.82
2019-03-24T14:58:09.450Z,22.73
2019-03-24T15:00:40.191Z,23.92
2019-03-24T15:03:09.338Z,23.18
2019-03-24T15:05:38.455Z,23.10
2019-03-24T15:08:07.610Z,22.80
2019-03-24T15:10:36.727Z,23.30
2019-03-24T15:13:05.838Z,20.92
2019-03-24T15:15:35.139Z,20.90
2019-03-24T15:18:04.266Z,20.85
2019-03-24T15:20:33.406Z,19.98
2019-03-24T15:23:02.787Z,19.82
2019-03-24T15:25:31.914Z,18.77
2019-03-24T15:28:01.026Z,19.45
2019-03-24T15:30:30.123Z,20.37
2019-03-24T15:32:59.206Z,19.73
2019-03-24T15:35:28.533Z,18.77
2019-03-24T15:38:08.227Z,19.23
2019-03-24T15:40:28.656Z,17.85
2019-03-24T15:42:57.947Z,18.32
2019-03-24T15:45:27.110Z,18.12
2019-03-24T15:47:56.250Z,16.87
2019-03-24T15:50:25.331Z,18.50
2019-03-24T15:52:54.430Z,16.97
2019-03-24T15:55:23.491Z,16.95
2019-03-24T15:57:52.623Z,15.05
2019-03-24T16:00:39.839Z,14.87
2019-03-24T16:03:08.962Z,14.00
2019-03-24T16:05:38.042Z,13.90
2019-03-24T16:08:07.127Z,14.75
2019-03-24T16:10:36.263Z,14.35
2019-03-24T16:13:05.422Z,13.95
2019-03-24T16:15:34.522Z,13.88
2019-03-24T16:18:03.879Z,13.55
2019-03-24T16:20:33.238Z,13.35
2019-03-24T16:23:02.682Z,12.53
2019-03-24T16:25:32.354Z,12.25
2019-03-24T16:28:01.706Z,12.68
2019-03-24T16:30:30.830Z,11.45
2019-03-24T16:33:00.159Z,11.55
2019-03-24T16:35:29.231Z,12.05
2019-03-24T16:37:58.331Z,12.37
2019-03-24T16:40:27.643Z,11.22
2019-03-24T16:42:56.971Z,11.95
2019-03-24T16:45:26.482Z,11.45
2019-03-24T16:47:55.860Z,11.65
2019-03-24T16:50:24.934Z,11.85
2019-03-24T16:52:54.035Z,11.93
2019-03-24T16:55:23.338Z,12.15
2019-03-24T16:57:52.430Z,11.73
2019-03-24T17:00:21.891Z,12.93
2019-03-24T17:02:51.269Z,11.33
2019-03-24T17:05:20.346Z,11.60
2019-03-24T17:07:49.623Z,10.82
2019-03-24T17:10:18.730Z,10.80
2019-03-24T17:12:47.822Z,10.32
2019-03-24T17:15:16.939Z,11.63
2019-03-24T17:17:46.233Z,10.93
2019-03-24T17:20:15.321Z,10.82
2019-03-24T17:22:44.402Z,10.08
2019-03-24T17:25:13.786Z,10.82
2019-03-24T17:27:42.907Z,10.63
2019-03-24T17:30:12.713Z,11.55
2019-03-24T17:32:42.054Z,11.25
2019-03-24T17:35:11.238Z,11.05
2019-03-24T17:37:40.878Z,11.18
2019-03-24T17:40:12.364Z,10.82
2019-03-24T17:42:41.266Z,10.78
2019-03-24T17:45:10.475Z,10.93
2019-03-24T17:47:40.062Z,9.30
2019-03-24T17:50:09.231Z,9.83
2019-03-24T17:52:38.440Z,11.00
2019-03-24T17:55:07.618Z,9.38
2019-03-24T17:57:37.114Z,9.83
2019-03-24T18:00:08.587Z,8.78
2019-03-24T18:02:37.847Z,8.75
2019-03-24T18:05:08.624Z,8.90
2019-03-24T18:07:37.780Z,8.90
2019-03-24T18:10:07.560Z,7.80
2019-03-24T18:12:36.664Z,8.95
2019-03-24T18:15:06.646Z,8.35
2019-03-24T18:17:35.775Z,8.00
2019-03-24T18:20:05.419Z,8.85
2019-03-24T18:22:34.482Z,9.28
2019-03-24T18:25:03.646Z,8.25
2019-03-24T18:27:33.098Z,10.20
2019-03-24T18:30:09.238Z,9.83
2019-03-24T18:32:38.459Z,11.93
2019-03-24T18:35:08.175Z,12.13
2019-03-24T18:37:37.262Z,11.18
2019-03-24T18:40:25.395Z,11.25
2019-03-24T18:42:54.494Z,11.20
2019-03-24T18:45:24.082Z,10.38
2019-03-24T18:47:53.202Z,12.43
2019-03-24T18:50:22.350Z,11.88
2019-03-24T18:52:52.075Z,9.75
2019-03-24T18:55:21.427Z,13.60
2019-03-24T18:57:50.510Z,14.80
2019-03-24T19:00:19.940Z,24.50
2019-03-24T19:02:49.119Z,24.92
2019-03-24T19:05:18.200Z,22.95
2019-03-24T19:07:47.746Z,24.25
2019-03-24T19:10:17.598Z,24.75
2019-03-24T19:12:46.986Z,23.57
2019-03-24T19:15:17.018Z,24.02
2019-03-24T19:17:46.181Z,23.52
2019-03-24T19:20:16.295Z,23.47
2019-03-24T19:22:45.466Z,22.82
2019-03-24T19:25:14.546Z,23.05
2019-03-24T19:27:43.669Z,24.02
2019-03-24T19:30:14.279Z,23.30
2019-03-24T19:32:43.651Z,23.92
2019-03-24T19:35:12.790Z,24.57
2019-03-24T19:37:42.227Z,24.80
2019-03-24T19:40:24.922Z,24.65
2019-03-24T19:42:54.038Z,22.77
2019-03-24T19:45:23.227Z,22.65
2019-03-24T19:47:52.633Z,22.70
2019-03-24T19:50:21.790Z,21.10
2019-03-24T19:52:50.914Z,19.67
2019-03-24T19:55:19.974Z,19.20
2019-03-24T19:57:49.097Z,19.15
2019-03-24T20:00:18.170Z,19.52
2019-03-24T20:02:47.527Z,19.73
2019-03-24T20:05:16.674Z,19.15
2019-03-24T20:07:48.190Z,19.25
2019-03-24T20:10:16.851Z,19.55
2019-03-24T20:12:46.182Z,20.57
2019-03-24T20:15:15.562Z,19.87
2019-03-24T20:17:44.710Z,19.45
2019-03-24T20:20:14.771Z,18.57
2019-03-24T20:22:43.962Z,17.45
2019-03-24T20:25:13.139Z,14.87
2019-03-24T20:27:42.493Z,13.70
2019-03-24T20:30:11.867Z,12.53
2019-03-24T20:32:41.030Z,11.75
2019-03-24T20:35:13.670Z,12.28
2019-03-24T20:37:43.381Z,12.23
2019-03-24T20:40:12.551Z,13.45
2019-03-24T20:42:41.964Z,13.10
2019-03-24T20:45:11.703Z,11.60
2019-03-24T20:47:40.826Z,12.37
2019-03-24T20:50:10.135Z,14.53
2019-03-24T20:52:39.242Z,15.53
2019-03-24T20:55:08.354Z,13.43
2019-03-24T20:57:37.414Z,9.85
2019-03-24T21:00:06.751Z,9.25
2019-03-24T21:02:36.064Z,8.35
2019-03-24T21:05:05.458Z,8.88
2019-03-24T21:07:35.103Z,8.00
2019-03-24T21:10:04.634Z,7.62
2019-03-24T21:12:33.994Z,6.72
2019-03-24T21:15:03.139Z,5.08
2019-03-24T21:17:32.687Z,5.87
2019-03-24T21:20:01.842Z,5.08
2019-03-24T21:22:31.414Z,5.53
2019-03-24T21:25:00.787Z,6.15
2019-03-24T21:27:30.166Z,5.80
2019-03-24T21:29:59.496Z,6.58
2019-03-24T21:32:29.283Z,7.80
2019-03-24T21:34:58.362Z,5.47
2019-03-24T21:37:27.674Z,5.15
2019-03-24T21:39:56.750Z,4.50
2019-03-24T21:42:25.838Z,4.33
2019-03-24T21:44:55.247Z,5.15
2019-03-24T21:47:24.579Z,6.75
2019-03-24T21:49:53.909Z,6.20
2019-03-24T21:52:23.054Z,6.62
2019-03-24T21:54:52.159Z,6.83
2019-03-24T21:57:21.250Z,5.08
2019-03-24T21:59:50.338Z,4.85
2019-03-24T22:02:19.931Z,5.55
2019-03-24T22:04:49.039Z,5.92
2019-03-24T22:07:18.388Z,6.15
2019-03-24T22:09:47.542Z,4.50
2019-03-24T22:12:16.638Z,5.45
2019-03-24T22:14:45.766Z,4.67
2019-03-24T22:17:14.838Z,5.67
2019-03-24T22:19:44.175Z,5.28
2019-03-24T22:22:13.936Z,5.00
2019-03-24T22:24:43.037Z,5.53
2019-03-24T22:27:12.413Z,5.40
2019-03-24T22:29:41.526Z,4.72
2019-03-24T22:32:10.622Z,5.28
2019-03-24T22:34:39.731Z,4.90
2019-03-24T22:37:15.714Z,5.53
2019-03-24T22:39:40.173Z,5.60
2019-03-24T22:42:09.331Z,5.12
2019-03-24T22:44:38.810Z,3.95
2019-03-24T22:47:07.966Z,4.78
2019-03-24T22:49:37.078Z,4.35
2019-03-24T22:52:07.531Z,4.65
2019-03-24T22:54:37.538Z,4.35
2019-03-24T22:57:06.839Z,3.95
2019-03-24T22:59:36.151Z,4.25
2019-03-24T23:02:05.391Z,3.72
2019-03-24T23:04:34.515Z,4.25
2019-03-24T23:07:03.862Z,4.17
2019-03-24T23:09:33.383Z,3.58
2019-03-24T23:12:02.511Z,4.25
2019-03-24T23:14:31.920Z,4.20
2019-03-24T23:17:01.019Z,3.65
2019-03-24T23:19:30.334Z,4.35
2019-03-24T23:21:59.930Z,4.35
2019-03-24T23:24:29.288Z,4.08
2019-03-24T23:26:58.682Z,3.77
2019-03-24T23:29:27.831Z,3.95
2019-03-24T23:31:56.922Z,4.37
2019-03-24T23:34:26.031Z,4.70
2019-03-24T23:36:55.130Z,4.87
2019-03-24T23:39:24.212Z,4.42
2019-03-24T23:41:53.301Z,4.30
2019-03-24T23:44:22.644Z,3.90
2019-03-24T23:46:51.698Z,4.60
2019-03-24T23:49:20.794Z,4.67
2019-03-24T23:51:49.838Z,4.58
2019-03-24T23:54:26.879Z,5.20
2019-03-24T23:56:50.071Z,4.95
2019-03-24T23:59:19.226Z,5.72
